Adelanto, California
Current Conditions -  °F | °C
As of 1:35 PM on Wednesday 26 Nov 2014 (Local Time) from KVCV Reporting Station
Clear Clear  
Wind Chill: 70°   Ceiling: Unl
Heat Index: 70°   Visibility: 10mi
Dew Point:   Wind: 0mph
Humidity: 9%   Direction: NA
Pressure: 30.32"   Gusts: NA
Location:  34.58°N, 117.41°W
Report Text: KVCV 262135Z AUTO 00000KT 10SM CLR 21/M13 A3032 RMK AO2
Loading
Personal Weather Stations






























Interactive Weather Map New forecast layout! Learn more

10-Day Weather Forecast

Advertisements
Track Severe Weather on mobile